sensor_id;sensor_type;location;lat;lon;timestamp;P1;durP1;ratioP1;P2;durP2;ratioP2
76552;SDS011;65395;53.168;18.156;2023-07-13T00:00:47;7.20;;;5.10;;
76552;SDS011;65395;53.168;18.156;2023-07-13T00:03:34;7.70;;;5.70;;
76552;SDS011;65395;53.168;18.156;2023-07-13T00:06:01;7.20;;;5.10;;
76552;SDS011;65395;53.168;18.156;2023-07-13T00:08:30;7.50;;;5.30;;
76552;SDS011;65395;53.168;18.156;2023-07-13T00:11:00;7.60;;;4.50;;
76552;SDS011;65395;53.168;18.156;2023-07-13T00:13:28;7.10;;;5.10;;
76552;SDS011;65395;53.168;18.156;2023-07-13T00:15:57;9.20;;;5.00;;
76552;SDS011;65395;53.168;18.156;2023-07-13T00:18:25;6.80;;;5.90;;
76552;SDS011;65395;53.168;18.156;2023-07-13T00:20:52;8.40;;;5.00;;
76552;SDS011;65395;53.168;18.156;2023-07-13T00:37:37;8.20;;;5.30;;
76552;SDS011;65395;53.168;18.156;2023-07-13T00:40:04;7.70;;;5.70;;
76552;SDS011;65395;53.168;18.156;2023-07-13T00:42:32;8.10;;;5.50;;
76552;SDS011;65395;53.168;18.156;2023-07-13T00:45:00;7.70;;;5.40;;
76552;SDS011;65395;53.168;18.156;2023-07-13T00:47:32;7.70;;;5.20;;
76552;SDS011;65395;53.168;18.156;2023-07-13T00:49:59;8.20;;;5.20;;
76552;SDS011;65395;53.168;18.156;2023-07-13T00:52:27;6.70;;;4.90;;
76552;SDS011;65395;53.168;18.156;2023-07-13T00:54:54;7.40;;;4.90;;
76552;SDS011;65395;53.168;18.156;2023-07-13T00:57:22;6.80;;;4.90;;
76552;SDS011;65395;53.168;18.156;2023-07-13T00:59:52;8.60;;;5.20;;
76552;SDS011;65395;53.168;18.156;2023-07-13T01:02:24;7.50;;;4.70;;
76552;SDS011;65395;53.168;18.156;2023-07-13T01:04:52;7.00;;;4.90;;
76552;SDS011;65395;53.168;18.156;2023-07-13T01:07:19;9.90;;;4.70;;
76552;SDS011;65395;53.168;18.156;2023-07-13T01:09:45;5.20;;;4.60;;
76552;SDS011;65395;53.168;18.156;2023-07-13T01:12:12;9.30;;;4.60;;
76552;SDS011;65395;53.168;18.156;2023-07-13T01:14:40;5.50;;;4.40;;
76552;SDS011;65395;53.168;18.156;2023-07-13T01:17:08;8.50;;;4.40;;
76552;SDS011;65395;53.168;18.156;2023-07-13T01:19:40;6.20;;;4.60;;
76552;SDS011;65395;53.168;18.156;2023-07-13T01:22:11;7.40;;;4.50;;
76552;SDS011;65395;53.168;18.156;2023-07-13T01:24:41;6.20;;;4.50;;
76552;SDS011;65395;53.168;18.156;2023-07-13T01:27:11;7.30;;;5.60;;
76552;SDS011;65395;53.168;18.156;2023-07-13T01:29:41;7.70;;;5.70;;
76552;SDS011;65395;53.168;18.156;2023-07-13T01:32:11;5.20;;;4.70;;
76552;SDS011;65395;53.168;18.156;2023-07-13T01:34:40;10.60;;;5.00;;
76552;SDS011;65395;53.168;18.156;2023-07-13T01:37:09;10.40;;;4.60;;
76552;SDS011;65395;53.168;18.156;2023-07-13T01:39:37;6.10;;;4.80;;
76552;SDS011;65395;53.168;18.156;2023-07-13T01:42:04;11.70;;;4.70;;
76552;SDS011;65395;53.168;18.156;2023-07-13T01:44:39;8.80;;;5.00;;
76552;SDS011;65395;53.168;18.156;2023-07-13T01:47:06;8.20;;;4.90;;
76552;SDS011;65395;53.168;18.156;2023-07-13T01:49:32;6.70;;;4.80;;
76552;SDS011;65395;53.168;18.156;2023-07-13T01:51:59;6.60;;;4.70;;
76552;SDS011;65395;53.168;18.156;2023-07-13T01:54:25;9.60;;;5.00;;
76552;SDS011;65395;53.168;18.156;2023-07-13T01:56:52;8.10;;;5.40;;
76552;SDS011;65395;53.168;18.156;2023-07-13T01:59:19;6.40;;;4.90;;
76552;SDS011;65395;53.168;18.156;2023-07-13T02:01:45;7.30;;;5.30;;
76552;SDS011;65395;53.168;18.156;2023-07-13T02:04:12;7.50;;;4.90;;
76552;SDS011;65395;53.168;18.156;2023-07-13T02:06:39;7.50;;;5.20;;
76552;SDS011;65395;53.168;18.156;2023-07-13T02:09:05;7.30;;;5.10;;
76552;SDS011;65395;53.168;18.156;2023-07-13T02:11:32;9.40;;;5.10;;
76552;SDS011;65395;53.168;18.156;2023-07-13T02:14:00;7.40;;;4.90;;
76552;SDS011;65395;53.168;18.156;2023-07-13T02:16:28;8.70;;;5.00;;
76552;SDS011;65395;53.168;18.156;2023-07-13T02:18:56;7.40;;;5.20;;
76552;SDS011;65395;53.168;18.156;2023-07-13T02:21:22;8.80;;;4.80;;
76552;SDS011;65395;53.168;18.156;2023-07-13T02:23:52;8.60;;;4.90;;
76552;SDS011;65395;53.168;18.156;2023-07-13T02:26:19;7.10;;;4.90;;
76552;SDS011;65395;53.168;18.156;2023-07-13T02:28:46;7.60;;;4.80;;
76552;SDS011;65395;53.168;18.156;2023-07-13T02:31:13;6.80;;;5.00;;
76552;SDS011;65395;53.168;18.156;2023-07-13T02:33:42;8.80;;;4.70;;
76552;SDS011;65395;53.168;18.156;2023-07-13T02:36:10;6.20;;;4.50;;
76552;SDS011;65395;53.168;18.156;2023-07-13T02:38:37;8.70;;;5.50;;
76552;SDS011;65395;53.168;18.156;2023-07-13T02:41:05;8.90;;;5.20;;
76552;SDS011;65395;53.168;18.156;2023-07-13T02:43:33;6.90;;;5.10;;
76552;SDS011;65395;53.168;18.156;2023-07-13T02:46:00;6.10;;;5.20;;
76552;SDS011;65395;53.168;18.156;2023-07-13T02:48:33;12.00;;;6.90;;
76552;SDS011;65395;53.168;18.156;2023-07-13T02:51:01;10.20;;;6.60;;
76552;SDS011;65395;53.168;18.156;2023-07-13T02:53:28;8.80;;;6.10;;
76552;SDS011;65395;53.168;18.156;2023-07-13T02:55:55;9.20;;;5.70;;
76552;SDS011;65395;53.168;18.156;2023-07-13T02:58:22;14.60;;;8.90;;
76552;SDS011;65395;53.168;18.156;2023-07-13T03:00:50;15.10;;;8.60;;
76552;SDS011;65395;53.168;18.156;2023-07-13T03:03:18;12.60;;;8.20;;
76552;SDS011;65395;53.168;18.156;2023-07-13T03:05:45;11.70;;;7.60;;
76552;SDS011;65395;53.168;18.156;2023-07-13T03:08:16;9.80;;;7.40;;
76552;SDS011;65395;53.168;18.156;2023-07-13T03:10:44;9.20;;;6.90;;
76552;SDS011;65395;53.168;18.156;2023-07-13T03:13:12;9.30;;;7.10;;
76552;SDS011;65395;53.168;18.156;2023-07-13T03:15:39;10.20;;;6.60;;
76552;SDS011;65395;53.168;18.156;2023-07-13T03:18:06;9.80;;;6.60;;
76552;SDS011;65395;53.168;18.156;2023-07-13T03:20:33;9.40;;;6.70;;
76552;SDS011;65395;53.168;18.156;2023-07-13T03:23:01;10.50;;;6.70;;
76552;SDS011;65395;53.168;18.156;2023-07-13T03:25:29;7.40;;;6.00;;
76552;SDS011;65395;53.168;18.156;2023-07-13T03:27:56;9.20;;;6.00;;
76552;SDS011;65395;53.168;18.156;2023-07-13T03:30:23;7.60;;;6.30;;
76552;SDS011;65395;53.168;18.156;2023-07-13T03:32:50;9.00;;;6.50;;
76552;SDS011;65395;53.168;18.156;2023-07-13T03:35:17;7.60;;;5.90;;
76552;SDS011;65395;53.168;18.156;2023-07-13T03:37:44;10.60;;;6.30;;
76552;SDS011;65395;53.168;18.156;2023-07-13T03:40:15;7.80;;;4.90;;
76552;SDS011;65395;53.168;18.156;2023-07-13T03:42:43;7.40;;;5.20;;
76552;SDS011;65395;53.168;18.156;2023-07-13T03:45:10;6.40;;;5.50;;
76552;SDS011;65395;53.168;18.156;2023-07-13T03:47:37;7.00;;;5.30;;
76552;SDS011;65395;53.168;18.156;2023-07-13T03:50:04;6.50;;;5.20;;
76552;SDS011;65395;53.168;18.156;2023-07-13T03:52:31;6.60;;;5.10;;
76552;SDS011;65395;53.168;18.156;2023-07-13T03:54:58;7.60;;;5.00;;
76552;SDS011;65395;53.168;18.156;2023-07-13T03:57:25;7.30;;;5.60;;
76552;SDS011;65395;53.168;18.156;2023-07-13T03:59:52;6.90;;;5.20;;
76552;SDS011;65395;53.168;18.156;2023-07-13T04:02:20;8.00;;;5.50;;
76552;SDS011;65395;53.168;18.156;2023-07-13T04:04:47;5.90;;;5.10;;
76552;SDS011;65395;53.168;18.156;2023-07-13T04:07:13;7.30;;;5.80;;
76552;SDS011;65395;53.168;18.156;2023-07-13T04:09:40;8.50;;;5.60;;
76552;SDS011;65395;53.168;18.156;2023-07-13T04:12:07;7.10;;;5.60;;
76552;SDS011;65395;53.168;18.156;2023-07-13T04:14:34;7.50;;;5.40;;
76552;SDS011;65395;53.168;18.156;2023-07-13T04:17:00;7.40;;;5.60;;
76552;SDS011;65395;53.168;18.156;2023-07-13T04:19:27;8.10;;;5.40;;
76552;SDS011;65395;53.168;18.156;2023-07-13T04:21:54;9.50;;;5.60;;
76552;SDS011;65395;53.168;18.156;2023-07-13T04:24:20;11.30;;;5.20;;
76552;SDS011;65395;53.168;18.156;2023-07-13T04:26:47;6.10;;;4.70;;
76552;SDS011;65395;53.168;18.156;2023-07-13T04:29:14;6.70;;;4.60;;
76552;SDS011;65395;53.168;18.156;2023-07-13T04:31:41;8.30;;;5.00;;
76552;SDS011;65395;53.168;18.156;2023-07-13T04:34:08;9.20;;;5.10;;
76552;SDS011;65395;53.168;18.156;2023-07-13T04:36:35;10.70;;;5.80;;
76552;SDS011;65395;53.168;18.156;2023-07-13T04:39:03;7.10;;;5.60;;
76552;SDS011;65395;53.168;18.156;2023-07-13T04:41:30;7.10;;;5.70;;
76552;SDS011;65395;53.168;18.156;2023-07-13T04:43:57;10.30;;;5.60;;
76552;SDS011;65395;53.168;18.156;2023-07-13T04:46:24;9.90;;;6.60;;
76552;SDS011;65395;53.168;18.156;2023-07-13T04:48:50;12.60;;;6.50;;
76552;SDS011;65395;53.168;18.156;2023-07-13T04:51:19;9.40;;;6.30;;
76552;SDS011;65395;53.168;18.156;2023-07-13T04:53:46;9.10;;;6.10;;
76552;SDS011;65395;53.168;18.156;2023-07-13T04:56:13;11.10;;;6.50;;
76552;SDS011;65395;53.168;18.156;2023-07-13T04:58:39;9.30;;;5.60;;
76552;SDS011;65395;53.168;18.156;2023-07-13T05:01:06;6.60;;;4.90;;
76552;SDS011;65395;53.168;18.156;2023-07-13T05:03:35;7.40;;;4.40;;
76552;SDS011;65395;53.168;18.156;2023-07-13T05:06:03;6.70;;;4.10;;
76552;SDS011;65395;53.168;18.156;2023-07-13T05:08:32;6.60;;;3.80;;
76552;SDS011;65395;53.168;18.156;2023-07-13T05:11:00;6.70;;;4.20;;
76552;SDS011;65395;53.168;18.156;2023-07-13T05:13:27;7.90;;;3.90;;
76552;SDS011;65395;53.168;18.156;2023-07-13T05:15:56;6.10;;;4.40;;
76552;SDS011;65395;53.168;18.156;2023-07-13T05:18:24;6.10;;;4.10;;
76552;SDS011;65395;53.168;18.156;2023-07-13T05:20:56;8.30;;;4.20;;
76552;SDS011;65395;53.168;18.156;2023-07-13T05:23:24;6.70;;;4.70;;
76552;SDS011;65395;53.168;18.156;2023-07-13T05:25:51;7.60;;;4.00;;
76552;SDS011;65395;53.168;18.156;2023-07-13T05:28:18;8.40;;;4.10;;
76552;SDS011;65395;53.168;18.156;2023-07-13T05:30:45;7.50;;;3.30;;
76552;SDS011;65395;53.168;18.156;2023-07-13T05:33:13;5.40;;;3.50;;
76552;SDS011;65395;53.168;18.156;2023-07-13T05:35:39;7.00;;;3.60;;
76552;SDS011;65395;53.168;18.156;2023-07-13T05:38:06;6.30;;;4.20;;
76552;SDS011;65395;53.168;18.156;2023-07-13T05:40:33;6.80;;;4.40;;
76552;SDS011;65395;53.168;18.156;2023-07-13T05:43:00;9.80;;;4.50;;
76552;SDS011;65395;53.168;18.156;2023-07-13T05:45:27;7.50;;;4.40;;
76552;SDS011;65395;53.168;18.156;2023-07-13T05:47:53;6.90;;;4.70;;
76552;SDS011;65395;53.168;18.156;2023-07-13T05:50:20;7.60;;;3.80;;
76552;SDS011;65395;53.168;18.156;2023-07-13T05:52:47;4.70;;;3.50;;
76552;SDS011;65395;53.168;18.156;2023-07-13T05:55:14;8.50;;;3.40;;
76552;SDS011;65395;53.168;18.156;2023-07-13T05:57:41;4.90;;;2.30;;
76552;SDS011;65395;53.168;18.156;2023-07-13T06:00:08;6.00;;;2.80;;
76552;SDS011;65395;53.168;18.156;2023-07-13T06:02:40;7.90;;;3.30;;
76552;SDS011;65395;53.168;18.156;2023-07-13T06:05:07;6.40;;;2.50;;
76552;SDS011;65395;53.168;18.156;2023-07-13T06:07:34;6.70;;;3.10;;
76552;SDS011;65395;53.168;18.156;2023-07-13T06:10:01;7.90;;;3.30;;
76552;SDS011;65395;53.168;18.156;2023-07-13T06:12:27;8.70;;;3.60;;
76552;SDS011;65395;53.168;18.156;2023-07-13T06:14:54;10.30;;;4.20;;
76552;SDS011;65395;53.168;18.156;2023-07-13T06:17:21;9.10;;;4.30;;
76552;SDS011;65395;53.168;18.156;2023-07-13T06:19:47;10.40;;;4.00;;
76552;SDS011;65395;53.168;18.156;2023-07-13T06:22:14;8.80;;;4.40;;
76552;SDS011;65395;53.168;18.156;2023-07-13T06:24:41;8.60;;;3.70;;
76552;SDS011;65395;53.168;18.156;2023-07-13T06:27:07;8.90;;;3.80;;
76552;SDS011;65395;53.168;18.156;2023-07-13T06:29:34;8.70;;;4.20;;
76552;SDS011;65395;53.168;18.156;2023-07-13T06:32:01;7.20;;;3.60;;
76552;SDS011;65395;53.168;18.156;2023-07-13T06:34:27;6.90;;;4.10;;
76552;SDS011;65395;53.168;18.156;2023-07-13T06:36:54;8.20;;;3.70;;
76552;SDS011;65395;53.168;18.156;2023-07-13T06:39:22;9.40;;;3.70;;
76552;SDS011;65395;53.168;18.156;2023-07-13T06:41:49;6.30;;;3.30;;
76552;SDS011;65395;53.168;18.156;2023-07-13T06:44:15;7.80;;;3.30;;
76552;SDS011;65395;53.168;18.156;2023-07-13T06:46:42;5.30;;;2.70;;
76552;SDS011;65395;53.168;18.156;2023-07-13T06:49:08;7.40;;;3.00;;
76552;SDS011;65395;53.168;18.156;2023-07-13T06:51:36;6.60;;;2.80;;
76552;SDS011;65395;53.168;18.156;2023-07-13T06:54:02;5.20;;;2.70;;
76552;SDS011;65395;53.168;18.156;2023-07-13T06:56:30;7.10;;;2.60;;
76552;SDS011;65395;53.168;18.156;2023-07-13T06:58:56;8.00;;;3.10;;
76552;SDS011;65395;53.168;18.156;2023-07-13T07:01:23;5.90;;;2.90;;
76552;SDS011;65395;53.168;18.156;2023-07-13T07:03:50;5.50;;;2.80;;
76552;SDS011;65395;53.168;18.156;2023-07-13T07:06:17;7.70;;;2.80;;
76552;SDS011;65395;53.168;18.156;2023-07-13T07:08:46;5.80;;;2.70;;
76552;SDS011;65395;53.168;18.156;2023-07-13T07:11:13;6.80;;;2.80;;
76552;SDS011;65395;53.168;18.156;2023-07-13T07:13:43;5.90;;;2.70;;
76552;SDS011;65395;53.168;18.156;2023-07-13T07:16:10;6.40;;;2.70;;
76552;SDS011;65395;53.168;18.156;2023-07-13T07:18:37;6.90;;;2.90;;
76552;SDS011;65395;53.168;18.156;2023-07-13T07:21:04;5.60;;;2.60;;
76552;SDS011;65395;53.168;18.156;2023-07-13T07:23:31;5.80;;;2.50;;
76552;SDS011;65395;53.168;18.156;2023-07-13T07:25:58;6.70;;;2.60;;
76552;SDS011;65395;53.168;18.156;2023-07-13T07:28:25;5.40;;;2.70;;
76552;SDS011;65395;53.168;18.156;2023-07-13T07:30:55;4.00;;;2.40;;
76552;SDS011;65395;53.168;18.156;2023-07-13T07:33:23;7.60;;;2.50;;
76552;SDS011;65395;53.168;18.156;2023-07-13T07:35:51;6.30;;;2.60;;
76552;SDS011;65395;53.168;18.156;2023-07-13T07:38:18;5.90;;;2.80;;
76552;SDS011;65395;53.168;18.156;2023-07-13T07:40:45;5.90;;;2.60;;
76552;SDS011;65395;53.168;18.156;2023-07-13T07:43:12;8.40;;;2.80;;
76552;SDS011;65395;53.168;18.156;2023-07-13T07:45:39;5.60;;;2.50;;
76552;SDS011;65395;53.168;18.156;2023-07-13T07:48:07;7.10;;;2.40;;
76552;SDS011;65395;53.168;18.156;2023-07-13T07:50:36;8.70;;;2.60;;
76552;SDS011;65395;53.168;18.156;2023-07-13T07:53:03;6.10;;;3.10;;
76552;SDS011;65395;53.168;18.156;2023-07-13T07:55:33;5.10;;;2.80;;
76552;SDS011;65395;53.168;18.156;2023-07-13T07:58:02;3.90;;;2.30;;
76552;SDS011;65395;53.168;18.156;2023-07-13T08:00:29;5.80;;;2.60;;
76552;SDS011;65395;53.168;18.156;2023-07-13T08:02:58;3.80;;;2.40;;
76552;SDS011;65395;53.168;18.156;2023-07-13T08:05:25;5.60;;;2.30;;
76552;SDS011;65395;53.168;18.156;2023-07-13T08:07:52;5.00;;;2.50;;
76552;SDS011;65395;53.168;18.156;2023-07-13T08:10:19;4.70;;;2.20;;
76552;SDS011;65395;53.168;18.156;2023-07-13T08:12:46;5.30;;;2.40;;
76552;SDS011;65395;53.168;18.156;2023-07-13T08:15:14;4.40;;;2.50;;
76552;SDS011;65395;53.168;18.156;2023-07-13T08:17:43;6.70;;;2.70;;
76552;SDS011;65395;53.168;18.156;2023-07-13T08:20:10;8.50;;;2.70;;
76552;SDS011;65395;53.168;18.156;2023-07-13T08:22:36;5.00;;;3.10;;
76552;SDS011;65395;53.168;18.156;2023-07-13T08:25:03;7.60;;;2.80;;
76552;SDS011;65395;53.168;18.156;2023-07-13T08:27:30;4.80;;;2.30;;
76552;SDS011;65395;53.168;18.156;2023-07-13T08:29:58;4.60;;;2.50;;
76552;SDS011;65395;53.168;18.156;2023-07-13T08:32:24;5.50;;;2.40;;
76552;SDS011;65395;53.168;18.156;2023-07-13T08:34:51;5.40;;;2.40;;
76552;SDS011;65395;53.168;18.156;2023-07-13T08:37:18;3.50;;;2.20;;
76552;SDS011;65395;53.168;18.156;2023-07-13T08:39:46;5.80;;;2.40;;
76552;SDS011;65395;53.168;18.156;2023-07-13T08:42:36;4.00;;;2.40;;
76552;SDS011;65395;53.168;18.156;2023-07-13T08:47:49;5.70;;;2.80;;
76552;SDS011;65395;53.168;18.156;2023-07-13T08:50:29;5.60;;;2.40;;
76552;SDS011;65395;53.168;18.156;2023-07-13T08:53:01;4.20;;;2.30;;
76552;SDS011;65395;53.168;18.156;2023-07-13T08:55:31;5.60;;;2.50;;
76552;SDS011;65395;53.168;18.156;2023-07-13T08:58:13;3.90;;;2.60;;
76552;SDS011;65395;53.168;18.156;2023-07-13T09:01:02;3.60;;;2.60;;
76552;SDS011;65395;53.168;18.156;2023-07-13T09:03:41;5.10;;;2.60;;
76552;SDS011;65395;53.168;18.156;2023-07-13T09:06:18;4.40;;;2.60;;
76552;SDS011;65395;53.168;18.156;2023-07-13T09:08:57;5.10;;;3.20;;
76552;SDS011;65395;53.168;18.156;2023-07-13T09:11:39;7.90;;;2.80;;
76552;SDS011;65395;53.168;18.156;2023-07-13T09:17:03;7.80;;;2.80;;
76552;SDS011;65395;53.168;18.156;2023-07-13T09:19:34;6.90;;;2.40;;
76552;SDS011;65395;53.168;18.156;2023-07-13T09:22:02;6.60;;;2.40;;
76552;SDS011;65395;53.168;18.156;2023-07-13T09:24:41;5.40;;;2.60;;
76552;SDS011;65395;53.168;18.156;2023-07-13T09:27:17;5.10;;;2.30;;
76552;SDS011;65395;53.168;18.156;2023-07-13T09:29:50;5.10;;;2.30;;
76552;SDS011;65395;53.168;18.156;2023-07-13T09:32:24;6.30;;;2.60;;
76552;SDS011;65395;53.168;18.156;2023-07-13T09:34:53;4.70;;;2.00;;
76552;SDS011;65395;53.168;18.156;2023-07-13T09:37:21;6.30;;;2.40;;
76552;SDS011;65395;53.168;18.156;2023-07-13T09:39:51;3.90;;;2.20;;
76552;SDS011;65395;53.168;18.156;2023-07-13T09:42:20;4.10;;;2.10;;
76552;SDS011;65395;53.168;18.156;2023-07-13T09:44:53;5.70;;;2.20;;
76552;SDS011;65395;53.168;18.156;2023-07-13T09:47:23;4.40;;;1.90;;
76552;SDS011;65395;53.168;18.156;2023-07-13T09:49:54;6.60;;;2.20;;
76552;SDS011;65395;53.168;18.156;2023-07-13T09:52:24;3.10;;;1.90;;
76552;SDS011;65395;53.168;18.156;2023-07-13T09:54:54;6.30;;;2.00;;
76552;SDS011;65395;53.168;18.156;2023-07-13T09:57:26;4.80;;;2.00;;
76552;SDS011;65395;53.168;18.156;2023-07-13T09:59:54;6.70;;;2.10;;
76552;SDS011;65395;53.168;18.156;2023-07-13T10:02:25;4.30;;;2.00;;
76552;SDS011;65395;53.168;18.156;2023-07-13T10:04:56;5.00;;;2.00;;
76552;SDS011;65395;53.168;18.156;2023-07-13T10:07:27;4.10;;;2.10;;
76552;SDS011;65395;53.168;18.156;2023-07-13T10:09:54;6.80;;;2.10;;
76552;SDS011;65395;53.168;18.156;2023-07-13T10:12:23;3.60;;;2.00;;
76552;SDS011;65395;53.168;18.156;2023-07-13T10:14:51;3.40;;;2.10;;
76552;SDS011;65395;53.168;18.156;2023-07-13T10:17:25;6.50;;;2.40;;
76552;SDS011;65395;53.168;18.156;2023-07-13T10:19:58;5.00;;;2.10;;
76552;SDS011;65395;53.168;18.156;2023-07-13T10:22:36;5.40;;;2.10;;
76552;SDS011;65395;53.168;18.156;2023-07-13T10:25:16;4.60;;;2.00;;
76552;SDS011;65395;53.168;18.156;2023-07-13T10:27:46;5.30;;;2.00;;
76552;SDS011;65395;53.168;18.156;2023-07-13T10:32:58;6.20;;;2.20;;
76552;SDS011;65395;53.168;18.156;2023-07-13T10:35:26;6.40;;;2.50;;
76552;SDS011;65395;53.168;18.156;2023-07-13T10:38:04;4.00;;;2.60;;
76552;SDS011;65395;53.168;18.156;2023-07-13T10:40:35;4.40;;;2.70;;
76552;SDS011;65395;53.168;18.156;2023-07-13T10:43:07;5.20;;;2.30;;
76552;SDS011;65395;53.168;18.156;2023-07-13T10:45:41;4.10;;;2.40;;
76552;SDS011;65395;53.168;18.156;2023-07-13T10:48:09;4.10;;;2.50;;
76552;SDS011;65395;53.168;18.156;2023-07-13T10:50:40;5.70;;;2.50;;
76552;SDS011;65395;53.168;18.156;2023-07-13T10:56:00;5.80;;;2.70;;
76552;SDS011;65395;53.168;18.156;2023-07-13T10:58:34;5.90;;;2.60;;
76552;SDS011;65395;53.168;18.156;2023-07-13T11:01:08;4.20;;;2.30;;
76552;SDS011;65395;53.168;18.156;2023-07-13T11:09:48;4.70;;;2.40;;
76552;SDS011;65395;53.168;18.156;2023-07-13T11:12:00;5.00;;;2.30;;
76552;SDS011;65395;53.168;18.156;2023-07-13T11:14:30;6.10;;;2.50;;
76552;SDS011;65395;53.168;18.156;2023-07-13T11:19:51;4.00;;;2.20;;
76552;SDS011;65395;53.168;18.156;2023-07-13T11:22:22;5.40;;;2.60;;
76552;SDS011;65395;53.168;18.156;2023-07-13T11:30:41;6.30;;;2.70;;
76552;SDS011;65395;53.168;18.156;2023-07-13T11:33:22;6.90;;;2.70;;
76552;SDS011;65395;53.168;18.156;2023-07-13T11:36:02;5.50;;;2.70;;
76552;SDS011;65395;53.168;18.156;2023-07-13T11:38:39;5.70;;;2.80;;
76552;SDS011;65395;53.168;18.156;2023-07-13T11:43:50;9.20;;;3.00;;
76552;SDS011;65395;53.168;18.156;2023-07-13T11:46:20;3.00;;;2.30;;
76552;SDS011;65395;53.168;18.156;2023-07-13T11:48:49;4.20;;;2.40;;
76552;SDS011;65395;53.168;18.156;2023-07-13T11:51:19;3.40;;;2.20;;
76552;SDS011;65395;53.168;18.156;2023-07-13T11:53:51;7.20;;;2.60;;
76552;SDS011;65395;53.168;18.156;2023-07-13T11:56:20;4.50;;;2.70;;
76552;SDS011;65395;53.168;18.156;2023-07-13T11:58:49;4.70;;;2.80;;
76552;SDS011;65395;53.168;18.156;2023-07-13T12:01:20;6.70;;;3.00;;
76552;SDS011;65395;53.168;18.156;2023-07-13T12:03:50;5.90;;;2.90;;
76552;SDS011;65395;53.168;18.156;2023-07-13T12:06:25;9.80;;;3.20;;
76552;SDS011;65395;53.168;18.156;2023-07-13T12:08:56;4.00;;;2.50;;
76552;SDS011;65395;53.168;18.156;2023-07-13T12:11:24;4.80;;;2.50;;
76552;SDS011;65395;53.168;18.156;2023-07-13T12:13:51;6.20;;;2.60;;
76552;SDS011;65395;53.168;18.156;2023-07-13T12:16:24;5.70;;;2.80;;
76552;SDS011;65395;53.168;18.156;2023-07-13T12:18:56;5.20;;;2.70;;
76552;SDS011;65395;53.168;18.156;2023-07-13T12:21:28;8.20;;;2.60;;
76552;SDS011;65395;53.168;18.156;2023-07-13T12:23:58;6.90;;;2.60;;
76552;SDS011;65395;53.168;18.156;2023-07-13T12:26:25;4.50;;;2.60;;
76552;SDS011;65395;53.168;18.156;2023-07-13T12:28:52;3.70;;;2.80;;
76552;SDS011;65395;53.168;18.156;2023-07-13T12:31:29;7.20;;;2.60;;
76552;SDS011;65395;53.168;18.156;2023-07-13T12:34:00;3.50;;;2.50;;
76552;SDS011;65395;53.168;18.156;2023-07-13T12:36:33;4.20;;;2.30;;
76552;SDS011;65395;53.168;18.156;2023-07-13T12:39:04;4.50;;;2.70;;
76552;SDS011;65395;53.168;18.156;2023-07-13T12:41:40;7.10;;;2.50;;
76552;SDS011;65395;53.168;18.156;2023-07-13T12:44:09;7.00;;;2.80;;
76552;SDS011;65395;53.168;18.156;2023-07-13T12:46:39;4.30;;;2.50;;
76552;SDS011;65395;53.168;18.156;2023-07-13T12:49:07;5.90;;;2.60;;
76552;SDS011;65395;53.168;18.156;2023-07-13T12:51:34;5.30;;;2.60;;
76552;SDS011;65395;53.168;18.156;2023-07-13T12:54:07;6.60;;;2.60;;
76552;SDS011;65395;53.168;18.156;2023-07-13T12:56:42;7.50;;;2.70;;
76552;SDS011;65395;53.168;18.156;2023-07-13T12:59:15;3.90;;;2.40;;
76552;SDS011;65395;53.168;18.156;2023-07-13T13:01:45;9.60;;;2.30;;
76552;SDS011;65395;53.168;18.156;2023-07-13T13:04:13;3.60;;;2.30;;
76552;SDS011;65395;53.168;18.156;2023-07-13T13:06:40;2.30;;;2.10;;
76552;SDS011;65395;53.168;18.156;2023-07-13T13:09:11;2.50;;;2.20;;
76552;SDS011;65395;53.168;18.156;2023-07-13T13:11:40;3.60;;;2.20;;
76552;SDS011;65395;53.168;18.156;2023-07-13T13:14:07;2.80;;;2.00;;
76552;SDS011;65395;53.168;18.156;2023-07-13T13:16:37;3.80;;;2.00;;
76552;SDS011;65395;53.168;18.156;2023-07-13T13:19:14;2.70;;;2.10;;
76552;SDS011;65395;53.168;18.156;2023-07-13T13:21:45;3.60;;;2.10;;
76552;SDS011;65395;53.168;18.156;2023-07-13T13:24:13;4.40;;;2.10;;
76552;SDS011;65395;53.168;18.156;2023-07-13T13:26:43;3.40;;;2.20;;
76552;SDS011;65395;53.168;18.156;2023-07-13T13:29:12;7.40;;;2.40;;
76552;SDS011;65395;53.168;18.156;2023-07-13T13:31:41;4.60;;;2.40;;
76552;SDS011;65395;53.168;18.156;2023-07-13T13:34:13;5.80;;;2.60;;
76552;SDS011;65395;53.168;18.156;2023-07-13T13:36:42;8.00;;;2.90;;
76552;SDS011;65395;53.168;18.156;2023-07-13T13:41:50;5.70;;;2.80;;
76552;SDS011;65395;53.168;18.156;2023-07-13T13:44:18;4.80;;;2.60;;
76552;SDS011;65395;53.168;18.156;2023-07-13T13:46:47;3.50;;;2.60;;
76552;SDS011;65395;53.168;18.156;2023-07-13T13:49:17;6.00;;;2.50;;
76552;SDS011;65395;53.168;18.156;2023-07-13T13:51:48;5.20;;;2.30;;
76552;SDS011;65395;53.168;18.156;2023-07-13T13:54:15;7.10;;;2.60;;
76552;SDS011;65395;53.168;18.156;2023-07-13T13:56:44;5.30;;;2.40;;
76552;SDS011;65395;53.168;18.156;2023-07-13T13:59:12;5.40;;;2.40;;
76552;SDS011;65395;53.168;18.156;2023-07-13T14:01:41;4.00;;;2.50;;
76552;SDS011;65395;53.168;18.156;2023-07-13T14:06:47;6.70;;;2.40;;
76552;SDS011;65395;53.168;18.156;2023-07-13T14:09:16;3.50;;;2.70;;
76552;SDS011;65395;53.168;18.156;2023-07-13T14:11:44;4.20;;;2.60;;
76552;SDS011;65395;53.168;18.156;2023-07-13T14:14:14;2.90;;;2.60;;
76552;SDS011;65395;53.168;18.156;2023-07-13T14:16:44;4.40;;;2.50;;
76552;SDS011;65395;53.168;18.156;2023-07-13T14:19:13;4.00;;;2.70;;
76552;SDS011;65395;53.168;18.156;2023-07-13T14:21:41;4.90;;;2.60;;
76552;SDS011;65395;53.168;18.156;2023-07-13T14:24:08;4.00;;;2.90;;
76552;SDS011;65395;53.168;18.156;2023-07-13T14:26:40;4.40;;;2.60;;
76552;SDS011;65395;53.168;18.156;2023-07-13T14:29:12;4.60;;;2.60;;
76552;SDS011;65395;53.168;18.156;2023-07-13T14:31:41;3.40;;;2.70;;
76552;SDS011;65395;53.168;18.156;2023-07-13T14:34:10;4.10;;;2.70;;
76552;SDS011;65395;53.168;18.156;2023-07-13T14:36:42;4.80;;;2.90;;
76552;SDS011;65395;53.168;18.156;2023-07-13T14:39:13;5.60;;;2.90;;
76552;SDS011;65395;53.168;18.156;2023-07-13T14:41:43;4.30;;;2.60;;
76552;SDS011;65395;53.168;18.156;2023-07-13T14:44:12;4.30;;;2.80;;
76552;SDS011;65395;53.168;18.156;2023-07-13T14:46:40;3.70;;;2.80;;
76552;SDS011;65395;53.168;18.156;2023-07-13T14:49:30;4.80;;;2.90;;
76552;SDS011;65395;53.168;18.156;2023-07-13T14:51:57;5.20;;;2.90;;
76552;SDS011;65395;53.168;18.156;2023-07-13T14:54:26;4.00;;;2.70;;
76552;SDS011;65395;53.168;18.156;2023-07-13T14:56:53;3.20;;;2.70;;
76552;SDS011;65395;53.168;18.156;2023-07-13T14:59:19;3.80;;;2.80;;
76552;SDS011;65395;53.168;18.156;2023-07-13T15:01:47;3.00;;;2.60;;
76552;SDS011;65395;53.168;18.156;2023-07-13T15:04:15;6.10;;;3.10;;
76552;SDS011;65395;53.168;18.156;2023-07-13T15:06:52;2.90;;;2.70;;
76552;SDS011;65395;53.168;18.156;2023-07-13T15:09:21;6.30;;;3.10;;
76552;SDS011;65395;53.168;18.156;2023-07-13T15:11:48;4.20;;;2.70;;
76552;SDS011;65395;53.168;18.156;2023-07-13T15:14:14;3.90;;;2.60;;
76552;SDS011;65395;53.168;18.156;2023-07-13T15:16:41;4.10;;;2.70;;
76552;SDS011;65395;53.168;18.156;2023-07-13T15:19:09;3.50;;;2.80;;
76552;SDS011;65395;53.168;18.156;2023-07-13T15:21:36;8.40;;;2.30;;
76552;SDS011;65395;53.168;18.156;2023-07-13T15:24:03;2.50;;;1.90;;
76552;SDS011;65395;53.168;18.156;2023-07-13T15:26:32;3.20;;;2.30;;
76552;SDS011;65395;53.168;18.156;2023-07-13T15:28:59;4.50;;;2.00;;
76552;SDS011;65395;53.168;18.156;2023-07-13T15:31:26;2.90;;;1.90;;